Time;durP1;ratioP1;P1;durP2;ratioP2;P2;SDS_P1;SDS_P2;PMS_P1;PMS_P2;Temp;Humidity;BMP_temperature;BMP_pressure;BME280_temperature;BME280_humidity;BME280_pressure;Samples;Min_cycle;Max_cycle;Signal;HPM_P1;HPM_P2
2021/01/20 00:00:30;;;;;;;9.63;2.23;;;;;;;;;;5077383;28;20185;-65
2021/01/20 00:02:56;;;;;;;0.00;0.00;;;;;;;;;;5078848;28;21062;-64
2021/01/20 00:05:23;;;;;;;0.30;0.20;;;;;;;;;;5080916;28;20184;-66
2021/01/20 00:07:49;;;;;;;0.10;0.10;;;;;;;;;;5078668;28;20562;-63
2021/01/20 00:10:16;;;;;;;0.00;0.00;;;;;;;;;;5080345;28;20238;-64
2021/01/20 00:12:47;;;;;;;0.00;0.00;;;;;;;;;;5077425;28;20576;-65
2021/01/20 00:15:18;;;;;;;0.00;0.00;;;;;;;;;;5073154;28;20507;-63
2021/01/20 00:17:45;;;;;;;1.03;0.10;;;;;;;;;;5080250;28;20174;-65
2021/01/20 00:20:12;;;;;;;0.00;0.00;;;;;;;;;;5081152;28;20180;-64
2021/01/20 00:22:40;;;;;;;3.20;1.00;;;;;;;;;;5080859;28;20181;-64
2021/01/20 00:25:06;;;;;;;0.40;0.40;;;;;;;;;;5076035;28;20193;-64
2021/01/20 00:27:33;;;;;;;0.20;0.20;;;;;;;;;;5078912;28;20581;-63
2021/01/20 00:30:00;;;;;;;0.00;0.00;;;;;;;;;;5074438;28;20564;-64
2021/01/20 00:32:26;;;;;;;0.60;0.60;;;;;;;;;;5070422;28;20179;-64
2021/01/20 00:34:53;;;;;;;0.00;0.00;;;;;;;;;;5072314;28;20178;-64
2021/01/20 00:37:21;;;;;;;0.00;0.00;;;;;;;;;;5070243;28;20197;-64
2021/01/20 00:39:48;;;;;;;0.00;0.00;;;;;;;;;;5079875;28;20513;-63
2021/01/20 00:42:14;;;;;;;0.00;0.00;;;;;;;;;;5069920;28;20209;-64
2021/01/20 00:44:41;;;;;;;0.00;0.00;;;;;;;;;;5077988;28;20178;-66
2021/01/20 00:47:08;;;;;;;0.00;0.00;;;;;;;;;;5079279;28;20262;-63
2021/01/20 00:49:34;;;;;;;0.30;0.30;;;;;;;;;;5073306;28;20293;-63
2021/01/20 00:52:03;;;;;;;2.83;2.63;;;;;;;;;;5075717;28;20209;-64
2021/01/20 00:54:29;;;;;;;0.00;0.00;;;;;;;;;;5075583;28;20247;-63
2021/01/20 00:56:57;;;;;;;0.83;0.50;;;;;;;;;;5070758;28;20208;-64
2021/01/20 00:59:23;;;;;;;4.73;0.83;;;;;;;;;;5073508;28;20203;-63
2021/01/20 01:01:50;;;;;;;0.37;0.30;;;;;;;;;;5077179;28;20173;-66
2021/01/20 01:04:17;;;;;;;0.70;0.57;;;;;;;;;;5071589;28;20185;-63
2021/01/20 01:06:45;;;;;;;0.33;0.20;;;;;;;;;;5080953;28;20178;-63
2021/01/20 01:09:12;;;;;;;2.07;1.70;;;;;;;;;;5087952;28;20237;-64
2021/01/20 01:11:39;;;;;;;0.00;0.00;;;;;;;;;;5078449;28;20229;-63
2021/01/20 01:14:08;;;;;;;0.00;0.00;;;;;;;;;;5070115;28;20277;-63
2021/01/20 01:16:35;;;;;;;0.00;0.00;;;;;;;;;;5076127;28;20235;-64
2021/01/20 01:19:01;;;;;;;0.43;0.43;;;;;;;;;;5077592;28;20178;-65
2021/01/20 01:21:28;;;;;;;0.00;0.00;;;;;;;;;;5080734;28;20189;-64
2021/01/20 01:23:55;;;;;;;0.20;0.20;;;;;;;;;;5067559;28;20191;-63
2021/01/20 01:26:22;;;;;;;0.00;0.00;;;;;;;;;;5089960;28;20182;-63
2021/01/20 01:28:49;;;;;;;1.30;0.10;;;;;;;;;;5073344;28;20272;-64
2021/01/20 01:31:15;;;;;;;0.00;0.00;;;;;;;;;;5075654;28;20214;-63
2021/01/20 01:33:42;;;;;;;0.00;0.00;;;;;;;;;;5072044;28;20531;-63
2021/01/20 01:36:14;;;;;;;0.17;0.10;;;;;;;;;;5084518;28;20186;-63
2021/01/20 01:38:41;;;;;;;13.03;1.13;;;;;;;;;;5077150;28;20206;-63
2021/01/20 01:41:08;;;;;;;0.27;0.27;;;;;;;;;;5073668;28;20232;-63
2021/01/20 01:43:35;;;;;;;0.00;0.00;;;;;;;;;;5077018;28;20216;-64
2021/01/20 01:46:02;;;;;;;0.20;0.20;;;;;;;;;;5075197;28;20169;-65
2021/01/20 01:48:29;;;;;;;0.57;0.20;;;;;;;;;;5076527;28;20316;-63
2021/01/20 01:50:55;;;;;;;0.00;0.00;;;;;;;;;;5074959;28;20785;-66
2021/01/20 01:53:22;;;;;;;1.47;0.30;;;;;;;;;;5072086;28;20214;-63
2021/01/20 01:55:49;;;;;;;0.20;0.20;;;;;;;;;;5076804;28;20180;-64
2021/01/20 01:58:16;;;;;;;0.23;0.23;;;;;;;;;;5075729;28;20185;-64
2021/01/20 02:00:43;;;;;;;0.00;0.00;;;;;;;;;;5081610;28;20205;-64
2021/01/20 02:03:10;;;;;;;0.00;0.00;;;;;;;;;;5076132;28;20173;-64
2021/01/20 02:05:36;;;;;;;1.50;1.33;;;;;;;;;;5078730;28;20188;-64
2021/01/20 02:08:05;;;;;;;0.00;0.00;;;;;;;;;;5078080;28;20722;-65
2021/01/20 02:10:32;;;;;;;0.00;0.00;;;;;;;;;;5078626;28;20232;-65
2021/01/20 02:13:07;;;;;;;0.00;0.00;;;;;;;;;;5077100;28;20223;-66
2021/01/20 02:15:44;;;;;;;0.27;0.10;;;;;;;;;;5076605;28;20181;-64
2021/01/20 02:18:16;;;;;;;0.00;0.00;;;;;;;;;;5075342;28;20204;-63
2021/01/20 02:20:56;;;;;;;0.00;0.00;;;;;;;;;;5076381;28;20616;-63
2021/01/20 02:23:23;;;;;;;0.00;0.00;;;;;;;;;;5075410;28;20193;-65
2021/01/20 14:03:36;;;;;;;1.00;0.50;;;;;;;;;;5089461;28;20570;-63
2021/01/20 14:06:08;;;;;;;0.20;0.20;;;;;;;;;;5063190;28;20448;-64
2021/01/20 14:08:36;;;;;;;0.30;0.27;;;;;;;;;;5065150;28;20178;-62
2021/01/20 14:11:04;;;;;;;2.97;2.17;;;;;;;;;;5058386;28;20172;-64
2021/01/20 14:13:32;;;;;;;0.27;0.27;;;;;;;;;;5065102;28;20237;-62
2021/01/20 14:15:59;;;;;;;1.83;0.73;;;;;;;;;;5062287;28;20175;-63
2021/01/20 14:18:34;;;;;;;0.10;0.10;;;;;;;;;;5063648;28;20266;-62
2021/01/20 14:21:12;;;;;;;0.10;0.10;;;;;;;;;;5067972;28;20174;-62
2021/01/20 14:23:39;;;;;;;0.10;0.10;;;;;;;;;;5058454;28;20233;-64
2021/01/20 14:26:07;;;;;;;0.00;0.00;;;;;;;;;;5058475;28;20177;-63
2021/01/20 14:28:33;;;;;;;0.10;0.10;;;;;;;;;;5060427;28;20656;-63
2021/01/20 14:30:59;;;;;;;2.17;1.20;;;;;;;;;;5057550;28;20178;-63
2021/01/20 14:33:26;;;;;;;0.33;0.20;;;;;;;;;;5059046;28;20577;-62
2021/01/20 14:35:54;;;;;;;0.90;0.47;;;;;;;;;;5058664;28;20630;-64
2021/01/20 14:38:21;;;;;;;0.07;0.07;;;;;;;;;;5059260;28;20195;-64
2021/01/20 14:40:47;;;;;;;0.10;0.10;;;;;;;;;;5066102;28;20297;-63
2021/01/20 14:43:14;;;;;;;2.33;0.30;;;;;;;;;;5053461;28;20357;-63
2021/01/20 14:45:40;;;;;;;1.80;0.20;;;;;;;;;;5049904;28;20562;-63
2021/01/20 14:48:15;;;;;;;0.20;0.20;;;;;;;;;;5058911;28;20539;-62
2021/01/20 14:50:42;;;;;;;0.30;0.30;;;;;;;;;;5058989;28;20185;-64
2021/01/20 14:53:09;;;;;;;0.17;0.17;;;;;;;;;;5058304;28;20504;-63
2021/01/20 14:55:37;;;;;;;0.10;0.10;;;;;;;;;;5058636;28;20213;-63
2021/01/20 14:58:03;;;;;;;0.93;0.63;;;;;;;;;;5060996;28;20286;-63
2021/01/20 15:00:30;;;;;;;0.13;0.13;;;;;;;;;;5058979;28;20618;-66
2021/01/20 15:02:57;;;;;;;1.40;0.43;;;;;;;;;;5058898;28;20230;-65
2021/01/20 15:05:23;;;;;;;0.10;0.10;;;;;;;;;;5058492;28;20283;-64
2021/01/20 15:07:50;;;;;;;0.10;0.10;;;;;;;;;;5059124;28;20260;-63
2021/01/20 15:10:17;;;;;;;0.00;0.00;;;;;;;;;;5059172;28;20214;-64
2021/01/20 15:12:44;;;;;;;0.10;0.10;;;;;;;;;;5056859;28;20193;-63
2021/01/20 15:15:11;;;;;;;1.23;0.90;;;;;;;;;;5044629;28;20246;-63
2021/01/20 15:17:38;;;;;;;1.73;0.87;;;;;;;;;;5044376;28;20200;-63
2021/01/20 15:20:06;;;;;;;2.63;1.13;;;;;;;;;;5044503;28;20633;-63
2021/01/20 15:22:33;;;;;;;3.10;0.30;;;;;;;;;;5052818;28;20211;-63
2021/01/20 15:25:00;;;;;;;0.20;0.20;;;;;;;;;;5045405;28;20649;-64
2021/01/20 15:27:26;;;;;;;0.10;0.10;;;;;;;;;;5044790;28;20824;-63
2021/01/20 15:29:53;;;;;;;0.10;0.10;;;;;;;;;;5045816;28;20660;-64
2021/01/20 15:32:20;;;;;;;0.23;0.20;;;;;;;;;;5044324;28;20614;-65
2021/01/20 15:34:46;;;;;;;0.23;0.23;;;;;;;;;;5044030;28;20194;-63
2021/01/20 15:37:13;;;;;;;0.10;0.10;;;;;;;;;;5044004;28;20253;-63
2021/01/20 15:39:40;;;;;;;11.43;1.63;;;;;;;;;;5044640;28;20267;-63
2021/01/20 15:42:06;;;;;;;0.00;0.00;;;;;;;;;;5044854;28;20219;-64
2021/01/20 15:44:33;;;;;;;0.10;0.10;;;;;;;;;;5044682;28;20168;-65
2021/01/20 15:47:00;;;;;;;0.00;0.00;;;;;;;;;;5045538;28;20250;-64
2021/01/20 15:49:26;;;;;;;0.57;0.30;;;;;;;;;;5044988;28;20705;-64
2021/01/20 15:51:53;;;;;;;0.77;0.10;;;;;;;;;;5046042;28;20282;-64
2021/01/20 15:54:20;;;;;;;0.57;0.50;;;;;;;;;;5049044;28;20179;-63
2021/01/20 15:56:47;;;;;;;0.67;0.20;;;;;;;;;;5052001;28;20269;-64
2021/01/20 15:59:13;;;;;;;2.17;0.80;;;;;;;;;;5038697;28;20266;-63
2021/01/20 16:01:40;;;;;;;0.00;0.00;;;;;;;;;;5045244;28;20805;-63
2021/01/20 16:04:12;;;;;;;0.10;0.10;;;;;;;;;;5046751;28;20528;-65
2021/01/20 16:12:46;;;;;;;12.80;0.87;;;;;;;;;;5075059;28;20186;-63
2021/01/20 16:18:16;;;;;;;0.77;0.77;;;;;;;;;;5048949;28;20189;-63
2021/01/20 16:20:42;;;;;;;0.83;0.83;;;;;;;;;;5045378;28;20578;-62
2021/01/20 16:23:09;;;;;;;1.30;1.20;;;;;;;;;;5047323;28;20594;-61
2021/01/20 16:28:39;;;;;;;0.33;0.33;;;;;;;;;;5054805;28;20241;-61
2021/01/20 16:31:07;;;;;;;10.63;1.50;;;;;;;;;;5052407;28;20748;-63
2021/01/20 16:33:34;;;;;;;0.97;0.63;;;;;;;;;;5046660;28;20439;-62
2021/01/20 16:36:03;;;;;;;0.30;0.10;;;;;;;;;;5044043;28;20176;-62
2021/01/20 16:38:30;;;;;;;0.20;0.20;;;;;;;;;;5044727;28;20245;-63
2021/01/20 16:40:57;;;;;;;0.40;0.30;;;;;;;;;;5042758;28;20184;-62
2021/01/20 16:43:24;;;;;;;0.40;0.40;;;;;;;;;;5043130;28;20219;-63
2021/01/20 16:45:50;;;;;;;7.93;0.67;;;;;;;;;;5043231;28;20712;-63
2021/01/20 16:48:38;;;;;;;0.10;0.10;;;;;;;;;;5049475;28;20181;-61
2021/01/20 16:54:31;;;;;;;1.90;1.90;;;;;;;;;;5053906;28;20180;-62
2021/01/20 17:00:02;;;;;;;0.10;0.10;;;;;;;;;;5054195;28;20202;-61
2021/01/20 17:02:28;;;;;;;3.17;0.60;;;;;;;;;;5050352;28;20231;-62
2021/01/20 17:04:55;;;;;;;1.90;1.07;;;;;;;;;;5041855;28;20577;-61
2021/01/20 17:07:26;;;;;;;0.47;0.10;;;;;;;;;;5039785;28;20645;-61
2021/01/20 17:09:52;;;;;;;0.67;0.67;;;;;;;;;;5039024;28;20203;-62
2021/01/20 17:12:19;;;;;;;0.40;0.40;;;;;;;;;;5042231;28;20465;-62
2021/01/20 17:14:48;;;;;;;0.00;0.00;;;;;;;;;;5042592;28;20192;-63
2021/01/20 17:17:17;;;;;;;0.10;0.10;;;;;;;;;;5044850;28;20186;-61
2021/01/20 17:19:44;;;;;;;0.90;0.20;;;;;;;;;;5043614;28;20179;-62
2021/01/20 17:22:19;;;;;;;1.90;1.30;;;;;;;;;;5043715;28;20212;-62
2021/01/20 17:24:53;;;;;;;4.23;0.20;;;;;;;;;;5042678;28;20608;-62
2021/01/20 17:30:40;;;;;;;0.70;0.70;;;;;;;;;;5046914;28;20218;-63
2021/01/20 17:36:13;;;;;;;4.63;0.50;;;;;;;;;;5050991;28;20167;-63
2021/01/20 17:39:01;;;;;;;0.90;0.87;;;;;;;;;;5041556;28;20693;-61
2021/01/20 17:41:28;;;;;;;0.10;0.10;;;;;;;;;;5044954;28;20171;-65
2021/01/20 17:43:56;;;;;;;2.10;0.83;;;;;;;;;;5043709;28;20543;-63
2021/01/20 17:46:24;;;;;;;2.07;1.10;;;;;;;;;;5045385;28;20258;-63
2021/01/20 17:48:51;;;;;;;0.00;0.00;;;;;;;;;;5040634;28;20606;-65
2021/01/20 17:51:34;;;;;;;0.10;0.10;;;;;;;;;;5045087;28;20175;-61
2021/01/20 17:57:04;;;;;;;0.00;0.00;;;;;;;;;;5053258;28;20577;-61
2021/01/20 17:59:49;;;;;;;0.20;0.20;;;;;;;;;;5041445;28;20185;-65
2021/01/20 18:02:16;;;;;;;0.83;0.37;;;;;;;;;;5046493;28;20234;-62
2021/01/20 18:04:46;;;;;;;0.73;0.73;;;;;;;;;;5044046;28;20179;-65
2021/01/20 18:10:18;;;;;;;1.10;0.77;;;;;;;;;;5049713;28;20617;-64
2021/01/20 18:12:45;;;;;;;6.90;2.20;;;;;;;;;;5040241;28;20452;-63
2021/01/20 18:15:19;;;;;;;0.40;0.40;;;;;;;;;;5039624;28;20488;-64
2021/01/20 18:17:52;;;;;;;0.87;0.30;;;;;;;;;;5038870;28;20328;-61
2021/01/20 18:20:22;;;;;;;8.17;1.00;;;;;;;;;;5038538;28;20167;-62
2021/01/20 18:22:56;;;;;;;1.77;1.23;;;;;;;;;;5037123;28;20575;-62
2021/01/20 18:25:25;;;;;;;0.37;0.37;;;;;;;;;;5038087;28;20206;-62
2021/01/20 18:27:53;;;;;;;0.77;0.10;;;;;;;;;;5037665;28;20176;-62
2021/01/20 18:30:31;;;;;;;0.10;0.10;;;;;;;;;;5041795;28;20202;-62
2021/01/20 18:32:58;;;;;;;5.90;0.90;;;;;;;;;;5044260;28;20239;-62
2021/01/20 18:35:31;;;;;;;0.00;0.00;;;;;;;;;;5044093;28;20210;-62
2021/01/20 18:38:02;;;;;;;0.80;0.80;;;;;;;;;;5041129;28;20207;-61
2021/01/20 18:40:47;;;;;;;0.10;0.10;;;;;;;;;;5042360;28;20195;-62
2021/01/20 18:43:23;;;;;;;0.77;0.77;;;;;;;;;;5041341;28;20596;-61
2021/01/20 18:45:54;;;;;;;2.10;1.90;;;;;;;;;;5042083;28;20193;-62
2021/01/20 18:48:21;;;;;;;0.23;0.23;;;;;;;;;;5042271;28;20192;-62
2021/01/20 18:50:49;;;;;;;0.10;0.10;;;;;;;;;;5045190;28;20271;-63
2021/01/20 18:53:19;;;;;;;0.20;0.20;;;;;;;;;;5042941;28;20216;-62
2021/01/20 18:55:55;;;;;;;2.47;0.70;;;;;;;;;;5045793;28;20845;-61
2021/01/20 18:58:22;;;;;;;0.00;0.00;;;;;;;;;;5045738;28;20809;-62
2021/01/20 19:00:50;;;;;;;0.47;0.47;;;;;;;;;;5045221;28;20188;-61
2021/01/20 19:03:23;;;;;;;0.10;0.10;;;;;;;;;;5043286;28;20314;-62
2021/01/20 19:05:52;;;;;;;6.70;1.63;;;;;;;;;;5045189;28;20181;-61
2021/01/20 19:08:22;;;;;;;0.40;0.40;;;;;;;;;;5046255;28;20226;-62
2021/01/20 19:10:53;;;;;;;2.40;0.37;;;;;;;;;;5045402;28;20271;-62
2021/01/20 19:13:41;;;;;;;0.00;0.00;;;;;;;;;;5046468;28;20534;-62
2021/01/20 19:16:24;;;;;;;0.53;0.23;;;;;;;;;;5054793;28;20168;-62
2021/01/20 19:19:00;;;;;;;11.57;0.93;;;;;;;;;;5055156;28;20550;-62
2021/01/20 19:21:27;;;;;;;4.60;0.47;;;;;;;;;;5042866;28;20218;-65
2021/01/20 19:23:54;;;;;;;0.60;0.60;;;;;;;;;;5044405;28;20231;-63
2021/01/20 19:26:27;;;;;;;0.20;0.20;;;;;;;;;;5044739;28;20215;-65
2021/01/20 19:28:58;;;;;;;0.77;0.23;;;;;;;;;;5046305;28;20172;-63
2021/01/20 19:31:27;;;;;;;0.10;0.10;;;;;;;;;;5049001;28;20238;-63
2021/01/20 19:33:55;;;;;;;5.40;2.40;;;;;;;;;;5045663;28;20187;-63
2021/01/20 19:36:22;;;;;;;1.60;1.03;;;;;;;;;;5044196;28;20180;-63
2021/01/20 19:38:51;;;;;;;0.10;0.10;;;;;;;;;;5044468;28;20198;-63
2021/01/20 19:41:25;;;;;;;0.23;0.20;;;;;;;;;;5045032;28;20187;-64
2021/01/20 19:46:55;;;;;;;0.17;0.10;;;;;;;;;;5035676;28;20190;-62
2021/01/20 19:52:37;;;;;;;0.67;0.50;;;;;;;;;;5055121;28;20568;-62
2021/01/20 20:01:16;;;;;;;6.23;1.97;;;;;;;;;;5053503;28;20178;-63
2021/01/20 20:03:49;;;;;;;0.00;0.00;;;;;;;;;;5052790;28;20205;-63
2021/01/20 20:09:20;;;;;;;0.17;0.17;;;;;;;;;;5044370;28;20277;-63
2021/01/20 20:11:47;;;;;;;0.70;0.60;;;;;;;;;;5038844;28;20225;-64
2021/01/20 20:14:14;;;;;;;4.83;1.37;;;;;;;;;;5050267;28;20266;-63
2021/01/20 20:16:44;;;;;;;0.00;0.00;;;;;;;;;;5041203;28;20657;-63
2021/01/20 20:19:11;;;;;;;2.50;0.80;;;;;;;;;;5037294;28;20561;-63
2021/01/20 20:21:41;;;;;;;8.57;7.70;;;;;;;;;;5038589;28;20191;-63
2021/01/20 20:24:08;;;;;;;0.00;0.00;;;;;;;;;;5039115;28;20646;-65
2021/01/20 20:26:35;;;;;;;4.60;0.30;;;;;;;;;;5165655;23;20228;-66
2021/01/20 20:29:08;;;;;;;23.37;2.23;;;;;;;;;;5007926;28;20189;-66
2021/01/20 20:31:38;;;;;;;0.10;0.10;;;;;;;;;;5003447;28;20192;-66
2021/01/20 20:34:05;;;;;;;2.90;0.70;;;;;;;;;;5010186;28;20809;-67
2021/01/20 20:36:35;;;;;;;3.10;0.93;;;;;;;;;;5008515;28;20196;-68
2021/01/20 20:39:05;;;;;;;2.30;0.87;;;;;;;;;;5002125;28;20189;-66
2021/01/20 20:41:31;;;;;;;3.00;0.53;;;;;;;;;;5003015;28;20189;-66
2021/01/20 20:44:02;;;;;;;1.40;1.40;;;;;;;;;;5006916;28;20214;-66
2021/01/20 20:46:35;;;;;;;0.30;0.30;;;;;;;;;;5005212;28;20981;-65
2021/01/20 20:49:05;;;;;;;0.50;0.37;;;;;;;;;;5006616;28;20276;-67
2021/01/20 20:51:35;;;;;;;4.13;0.47;;;;;;;;;;5011893;28;20188;-68
2021/01/20 20:54:02;;;;;;;4.30;1.70;;;;;;;;;;5004141;28;20188;-67
2021/01/20 20:56:29;;;;;;;4.10;0.60;;;;;;;;;;5003062;28;20737;-67
2021/01/20 20:58:56;;;;;;;3.77;0.37;;;;;;;;;;5002189;28;20880;-69
2021/01/20 21:01:23;;;;;;;0.53;0.53;;;;;;;;;;5002729;28;20188;-68
2021/01/20 21:03:50;;;;;;;0.00;0.00;;;;;;;;;;5010086;28;20189;-68
2021/01/20 21:06:20;;;;;;;0.30;0.30;;;;;;;;;;5004222;28;20198;-63
2021/01/20 21:08:53;;;;;;;1.70;0.20;;;;;;;;;;4992089;28;20196;-68
2021/01/20 21:11:23;;;;;;;2.80;1.07;;;;;;;;;;4998676;28;20201;-67
2021/01/20 21:13:50;;;;;;;1.23;1.17;;;;;;;;;;5000418;28;20218;-68
2021/01/20 21:16:17;;;;;;;0.10;0.10;;;;;;;;;;5002652;28;20702;-67
2021/01/20 21:18:59;;;;;;;0.30;0.30;;;;;;;;;;4997447;28;21516;-68
2021/01/20 21:21:29;;;;;;;0.03;0.03;;;;;;;;;;5001644;28;20203;-68
2021/01/20 21:23:56;;;;;;;0.00;0.00;;;;;;;;;;4999515;28;20191;-73
2021/01/20 21:26:23;;;;;;;0.00;0.00;;;;;;;;;;5004145;28;20225;-71
2021/01/20 21:28:50;;;;;;;0.20;0.20;;;;;;;;;;4999959;28;20184;-69
2021/01/20 21:31:20;;;;;;;0.00;0.00;;;;;;;;;;5005518;28;20213;-69
2021/01/20 21:33:47;;;;;;;0.00;0.00;;;;;;;;;;4999240;28;20286;-68
2021/01/20 21:36:17;;;;;;;0.50;0.40;;;;;;;;;;4999545;28;20626;-70
2021/01/20 21:38:50;;;;;;;1.80;1.80;;;;;;;;;;4996486;28;20188;-68
2021/01/20 21:41:20;;;;;;;0.00;0.00;;;;;;;;;;5000920;28;20231;-65
2021/01/20 21:43:51;;;;;;;0.37;0.30;;;;;;;;;;4998749;28;20199;-67
2021/01/20 21:46:18;;;;;;;0.63;0.13;;;;;;;;;;5001841;23;20250;-63
2021/01/20 21:48:45;;;;;;;0.13;0.13;;;;;;;;;;5019106;28;20183;-63
2021/01/20 21:51:12;;;;;;;0.83;0.67;;;;;;;;;;5022555;28;20388;-63
2021/01/20 21:53:39;;;;;;;0.20;0.20;;;;;;;;;;5019886;28;20183;-63
2021/01/20 21:56:16;;;;;;;0.00;0.00;;;;;;;;;;5017250;28;20176;-63
2021/01/20 21:58:46;;;;;;;0.00;0.00;;;;;;;;;;5016619;28;20240;-64
2021/01/20 22:04:16;;;;;;;0.07;0.07;;;;;;;;;;5033399;28;20246;-61
2021/01/20 22:06:43;;;;;;;0.00;0.00;;;;;;;;;;5022402;28;20253;-63
2021/01/20 22:09:13;;;;;;;0.00;0.00;;;;;;;;;;5017474;28;20188;-62
2021/01/20 22:11:41;;;;;;;0.00;0.00;;;;;;;;;;5015793;28;20176;-62
2021/01/20 22:14:12;;;;;;;0.00;0.00;;;;;;;;;;5022292;28;20218;-64
2021/01/20 22:16:40;;;;;;;0.57;0.20;;;;;;;;;;5020347;28;20196;-63
2021/01/20 22:19:10;;;;;;;0.00;0.00;;;;;;;;;;5018840;28;20233;-62
2021/01/20 22:21:40;;;;;;;0.00;0.00;;;;;;;;;;5019941;28;20618;-62
2021/01/20 22:24:10;;;;;;;0.00;0.00;;;;;;;;;;5016944;28;20195;-64
2021/01/20 22:26:40;;;;;;;14.03;2.33;;;;;;;;;;5025568;28;20436;-62
2021/01/20 22:29:07;;;;;;;0.13;0.13;;;;;;;;;;5028673;28;20586;-63
2021/01/20 22:31:34;;;;;;;0.00;0.00;;;;;;;;;;5023634;28;20241;-60
2021/01/20 22:34:01;;;;;;;0.00;0.00;;;;;;;;;;5019649;28;20191;-61
2021/01/20 22:36:29;;;;;;;0.00;0.00;;;;;;;;;;5021928;28;20191;-66
2021/01/20 22:38:56;;;;;;;0.00;0.00;;;;;;;;;;5023003;28;20195;-61
2021/01/20 22:47:32;;;;;;;0.10;0.10;;;;;;;;;;5034936;28;20265;-60
2021/01/20 22:56:20;;;;;;;0.00;0.00;;;;;;;;;;5016835;28;20222;-60
2021/01/20 22:58:47;;;;;;;0.00;0.00;;;;;;;;;;5023198;28;20179;-61
2021/01/20 23:07:14;;;;;;;0.10;0.10;;;;;;;;;;5030336;28;20194;-61
2021/01/20 23:09:44;;;;;;;0.00;0.00;;;;;;;;;;5015160;28;20183;-61
2021/01/20 23:12:11;;;;;;;0.23;0.10;;;;;;;;;;5017686;28;20180;-62
2021/01/20 23:14:38;;;;;;;0.00;0.00;;;;;;;;;;5017570;28;20260;-61
2021/01/20 23:17:05;;;;;;;0.00;0.00;;;;;;;;;;5020015;28;20250;-61
2021/01/20 23:19:32;;;;;;;0.00;0.00;;;;;;;;;;5020682;28;20273;-63
2021/01/20 23:21:59;;;;;;;0.10;0.10;;;;;;;;;;5022532;28;20235;-62
2021/01/20 23:24:26;;;;;;;0.00;0.00;;;;;;;;;;5022160;28;20237;-61
2021/01/20 23:26:53;;;;;;;0.57;0.43;;;;;;;;;;5021142;28;20592;-61
2021/01/20 23:29:20;;;;;;;0.00;0.00;;;;;;;;;;5018447;28;20195;-61
2021/01/20 23:31:47;;;;;;;9.90;1.23;;;;;;;;;;5016550;28;20191;-61
2021/01/20 23:34:17;;;;;;;0.00;0.00;;;;;;;;;;5011850;28;20191;-61
2021/01/20 23:36:44;;;;;;;0.00;0.00;;;;;;;;;;5014313;28;20378;-62
2021/01/20 23:39:12;;;;;;;0.00;0.00;;;;;;;;;;5010538;28;20656;-62
2021/01/20 23:41:39;;;;;;;0.93;0.23;;;;;;;;;;5015137;28;20180;-61
2021/01/20 23:44:07;;;;;;;0.00;0.00;;;;;;;;;;5022144;28;20625;-60
2021/01/20 23:46:37;;;;;;;0.00;0.00;;;;;;;;;;5017641;28;20335;-62
2021/01/20 23:52:08;;;;;;;1.80;1.17;;;;;;;;;;5024462;28;20193;-62
2021/01/20 23:54:35;;;;;;;0.00;0.00;;;;;;;;;;5022010;28;20691;-61
2021/01/20 23:57:03;;;;;;;2.30;0.47;;;;;;;;;;5022482;28;20183;-61
2021/01/20 23:59:30;;;;;;;0.00;0.00;;;;;;;;;;5020117;28;20181;-61
